createdAt,value
2022-10-19T00:01:36.614Z,15.00
2022-10-19T00:04:07.974Z,15.26
2022-10-19T00:06:37.256Z,15.41
2022-10-19T00:09:06.125Z,15.25
2022-10-19T00:11:34.301Z,15.24
2022-10-19T00:14:02.150Z,15.23
2022-10-19T00:16:32.140Z,15.21
2022-10-19T00:19:01.789Z,15.30
2022-10-19T00:21:29.456Z,15.17
2022-10-19T00:23:57.076Z,15.27
2022-10-19T00:26:24.716Z,15.22
2022-10-19T00:28:54.274Z,15.32
2022-10-19T00:31:22.167Z,15.33
2022-10-19T00:33:49.937Z,15.22
2022-10-19T00:36:20.225Z,15.35
2022-10-19T00:38:48.193Z,15.28
2022-10-19T00:41:16.045Z,15.23
2022-10-19T00:43:54.203Z,15.35
2022-10-19T00:46:21.909Z,15.27
2022-10-19T00:51:24.749Z,15.32
2022-10-19T00:53:52.616Z,15.19
2022-10-19T00:56:20.319Z,15.03
2022-10-19T00:58:48.127Z,15.23
2022-10-19T01:01:18.417Z,15.24
2022-10-19T01:03:46.187Z,15.25
2022-10-19T01:06:15.421Z,15.39
2022-10-19T01:08:44.614Z,15.34
2022-10-19T01:11:20.588Z,15.33
2022-10-19T01:13:54.882Z,15.04
2022-10-19T01:16:29.172Z,15.22
2022-10-19T01:19:03.698Z,15.14
2022-10-19T01:21:36.530Z,15.16
2022-10-19T01:24:23.537Z,15.31
2022-10-19T01:27:14.187Z,15.25
2022-10-19T01:29:53.049Z,15.20
2022-10-19T01:32:24.627Z,15.35
2022-10-19T01:34:58.578Z,15.41
2022-10-19T01:37:33.254Z,15.38
2022-10-19T01:40:05.207Z,15.25
2022-10-19T01:42:33.991Z,15.22
2022-10-19T01:45:05.565Z,15.18
2022-10-19T01:47:36.894Z,15.16
2022-10-19T01:50:07.790Z,15.27
2022-10-19T01:52:36.681Z,15.26
2022-10-19T01:55:05.482Z,15.17
2022-10-19T01:57:34.316Z,15.17
2022-10-19T02:00:07.437Z,15.13
2022-10-19T02:02:41.379Z,15.17
2022-10-19T02:05:10.135Z,15.17
2022-10-19T02:07:38.938Z,15.22
2022-10-19T02:10:07.492Z,15.15
2022-10-19T02:12:35.704Z,15.03
2022-10-19T02:15:10.385Z,15.17
2022-10-19T02:17:41.529Z,14.94
2022-10-19T02:20:09.584Z,15.00
2022-10-19T02:22:37.353Z,15.15
2022-10-19T02:25:05.424Z,15.08
2022-10-19T02:27:33.156Z,15.08
2022-10-19T02:30:00.849Z,15.05
2022-10-19T02:32:29.821Z,15.01
2022-10-19T02:34:57.447Z,15.09
2022-10-19T02:37:25.749Z,15.16
2022-10-19T02:39:53.560Z,15.07
2022-10-19T02:42:24.473Z,15.14
2022-10-19T02:44:54.460Z,15.08
2022-10-19T02:47:25.036Z,15.12
2022-10-19T02:49:54.608Z,14.88
2022-10-19T02:52:22.211Z,14.99
2022-10-19T02:54:49.824Z,15.09
2022-10-19T02:57:18.690Z,15.06
2022-10-19T02:59:46.408Z,15.01
2022-10-19T03:02:14.451Z,15.07
2022-10-19T03:04:42.625Z,15.26
2022-10-19T03:07:12.337Z,15.02
2022-10-19T03:09:39.962Z,15.10
2022-10-19T03:12:07.737Z,15.02
2022-10-19T03:14:35.478Z,15.00
2022-10-19T03:17:03.332Z,14.86
2022-10-19T03:19:30.948Z,14.87
2022-10-19T03:21:58.635Z,14.91
2022-10-19T03:24:27.663Z,14.92
2022-10-19T03:26:55.278Z,15.05
2022-10-19T03:29:23.049Z,14.91
2022-10-19T03:31:50.701Z,14.98
2022-10-19T03:34:18.307Z,15.02
2022-10-19T03:36:46.880Z,14.83
2022-10-19T03:39:16.039Z,14.56
2022-10-19T03:41:45.234Z,14.82
2022-10-19T03:44:13.140Z,14.79
2022-10-19T03:46:41.001Z,14.84
2022-10-19T03:49:09.079Z,14.96
2022-10-19T03:51:37.051Z,14.73
2022-10-19T03:54:06.555Z,14.97
2022-10-19T03:56:34.612Z,15.02
2022-10-19T03:59:04.623Z,14.84
2022-10-19T04:01:33.421Z,14.90
2022-10-19T04:04:01.794Z,14.88
2022-10-19T04:06:30.326Z,14.87
2022-10-19T04:08:58.308Z,14.56
2022-10-19T04:11:27.050Z,14.74
2022-10-19T04:13:55.843Z,14.78
2022-10-19T04:16:25.391Z,14.82
2022-10-19T04:18:53.245Z,14.82
2022-10-19T04:21:22.825Z,14.61
2022-10-19T04:23:51.080Z,14.78
2022-10-19T04:26:18.892Z,14.78
2022-10-19T04:28:46.656Z,14.73
2022-10-19T04:31:14.293Z,14.85
2022-10-19T04:33:43.485Z,14.67
2022-10-19T04:36:11.994Z,14.74
2022-10-19T04:38:39.648Z,14.49
2022-10-19T04:41:08.393Z,14.84
2022-10-19T04:43:36.076Z,14.72
2022-10-19T04:46:04.779Z,14.62
2022-10-19T04:48:32.483Z,14.69
2022-10-19T04:51:01.480Z,14.85
2022-10-19T04:53:29.356Z,14.73
2022-10-19T04:55:56.975Z,14.78
2022-10-19T04:58:24.604Z,14.88
2022-10-19T05:00:52.296Z,14.84
2022-10-19T05:03:19.957Z,14.82
2022-10-19T05:05:47.570Z,14.77
2022-10-19T05:08:16.552Z,14.79
2022-10-19T05:10:47.599Z,14.77
2022-10-19T05:13:15.602Z,14.39
2022-10-19T05:15:43.304Z,14.49
2022-10-19T05:18:10.900Z,14.68
2022-10-19T05:20:38.534Z,14.34
2022-10-19T05:23:07.316Z,14.53
2022-10-19T05:25:36.454Z,14.53
2022-10-19T05:28:04.130Z,14.43
2022-10-19T05:30:32.533Z,14.45
2022-10-19T05:33:00.135Z,14.50
2022-10-19T05:35:27.739Z,14.50
2022-10-19T05:37:55.471Z,14.57
2022-10-19T05:40:23.196Z,14.45
2022-10-19T05:42:52.185Z,14.58
2022-10-19T05:45:19.775Z,14.27
2022-10-19T05:47:47.434Z,14.41
2022-10-19T05:50:15.050Z,14.27
2022-10-19T05:52:42.673Z,14.39
2022-10-19T05:55:10.703Z,14.43
2022-10-19T05:57:38.312Z,14.43
2022-10-19T06:00:07.812Z,14.57
2022-10-19T06:02:39.402Z,14.58
2022-10-19T06:05:07.550Z,14.39
2022-10-19T06:07:35.453Z,14.51
2022-10-19T06:10:03.357Z,14.56
2022-10-19T06:12:30.971Z,14.42
2022-10-19T06:14:58.609Z,14.51
2022-10-19T06:17:29.037Z,14.60
2022-10-19T06:19:56.696Z,14.56
2022-10-19T06:22:24.304Z,14.63
2022-10-19T06:24:52.061Z,14.67
2022-10-19T06:27:19.778Z,14.57
2022-10-19T06:29:47.462Z,14.32
2022-10-19T06:32:15.119Z,14.55
2022-10-19T06:34:44.050Z,14.64
2022-10-19T06:37:11.720Z,14.80
2022-10-19T06:39:39.371Z,14.69
2022-10-19T06:42:07.027Z,14.66
2022-10-19T06:44:35.583Z,14.64
2022-10-19T06:47:03.212Z,14.35
2022-10-19T06:49:30.861Z,14.63
2022-10-19T06:51:59.843Z,14.82
2022-10-19T06:54:27.460Z,14.78
2022-10-19T06:56:55.162Z,14.70
2022-10-19T06:59:22.773Z,14.58
2022-10-19T07:01:50.438Z,14.74
2022-10-19T07:04:18.169Z,14.93
2022-10-19T07:06:45.846Z,14.89
2022-10-19T07:09:14.882Z,14.98
2022-10-19T07:11:45.994Z,15.09
2022-10-19T07:14:13.991Z,15.16
2022-10-19T07:16:41.659Z,15.17
2022-10-19T07:19:09.456Z,14.76
2022-10-19T07:21:41.612Z,15.09
2022-10-19T07:24:09.317Z,15.17
2022-10-19T07:26:38.405Z,15.45
2022-10-19T07:29:06.120Z,15.42
2022-10-19T07:31:33.884Z,15.33
2022-10-19T07:34:02.584Z,15.55
2022-10-19T07:36:31.137Z,15.51
2022-10-19T07:38:59.224Z,15.40
2022-10-19T07:41:27.376Z,15.47
2022-10-19T07:43:57.844Z,15.14
2022-10-19T07:46:27.197Z,15.45
2022-10-19T07:48:54.849Z,15.27
2022-10-19T07:51:22.963Z,15.48
2022-10-19T07:53:50.714Z,15.60
2022-10-19T07:56:19.103Z,15.44
2022-10-19T07:58:46.978Z,15.21
2022-10-19T08:01:17.243Z,15.53
2022-10-19T08:06:33.151Z,15.42
2022-10-19T08:09:00.870Z,15.45
2022-10-19T08:11:30.066Z,15.53
2022-10-19T08:13:59.127Z,15.42
2022-10-19T08:16:29.321Z,15.28
2022-10-19T08:18:58.925Z,15.41
2022-10-19T08:21:26.643Z,14.83
2022-10-19T08:23:54.593Z,15.19
2022-10-19T08:26:22.262Z,15.32
2022-10-19T08:28:49.877Z,14.73
2022-10-19T08:31:18.687Z,15.09
2022-10-19T08:33:47.772Z,15.25
2022-10-19T08:36:15.480Z,15.29
2022-10-19T08:38:45.108Z,15.48
2022-10-19T08:41:30.099Z,15.50
2022-10-19T08:44:06.333Z,15.58
2022-10-19T08:46:44.177Z,15.71
2022-10-19T08:49:17.239Z,15.86
2022-10-19T08:51:45.672Z,15.91
2022-10-19T08:54:17.168Z,15.74
2022-10-19T08:56:51.549Z,15.96
2022-10-19T08:59:26.551Z,16.08
2022-10-19T09:01:55.945Z,15.66
2022-10-19T09:04:27.072Z,15.73
2022-10-19T09:07:00.917Z,16.22
2022-10-19T09:09:30.949Z,16.43
2022-10-19T09:12:03.169Z,16.46
2022-10-19T09:14:33.511Z,16.06
2022-10-19T09:17:03.842Z,16.21
2022-10-19T09:19:33.321Z,16.25
2022-10-19T09:22:02.970Z,16.37
2022-10-19T09:24:33.002Z,16.51
2022-10-19T09:27:01.707Z,16.28
2022-10-19T09:29:34.274Z,16.39
2022-10-19T09:32:04.815Z,16.54
2022-10-19T09:34:36.795Z,16.27
2022-10-19T09:37:04.486Z,16.16
2022-10-19T09:39:32.394Z,16.31
2022-10-19T09:42:05.884Z,16.33
2022-10-19T09:44:33.482Z,16.38
2022-10-19T09:47:09.103Z,16.19
2022-10-19T09:49:43.221Z,16.64
2022-10-19T09:52:32.709Z,16.47
2022-10-19T09:55:02.371Z,16.60
2022-10-19T09:57:30.707Z,16.51
2022-10-19T09:59:58.947Z,16.84
2022-10-19T10:02:30.981Z,16.44
2022-10-19T10:05:06.367Z,16.38
2022-10-19T10:07:36.659Z,16.51
2022-10-19T10:10:10.282Z,16.43
2022-10-19T10:12:38.530Z,16.57
2022-10-19T10:15:07.161Z,16.92
2022-10-19T10:17:36.831Z,16.67
2022-10-19T10:20:18.379Z,16.68
2022-10-19T10:22:52.792Z,16.76
2022-10-19T10:25:20.438Z,17.17
2022-10-19T10:27:55.069Z,17.59
2022-10-19T10:30:22.705Z,17.10
2022-10-19T10:32:51.469Z,17.17
2022-10-19T10:35:22.363Z,17.27
2022-10-19T10:37:50.715Z,16.74
2022-10-19T10:40:23.639Z,16.82
2022-10-19T10:42:52.585Z,17.22
2022-10-19T10:45:23.457Z,17.02
2022-10-19T10:47:51.490Z,17.24
2022-10-19T10:50:23.733Z,18.28
2022-10-19T10:53:01.312Z,18.27
2022-10-19T10:55:29.614Z,18.88
2022-10-19T10:58:10.236Z,18.80
2022-10-19T11:00:40.212Z,18.35
2022-10-19T11:03:11.893Z,17.61
2022-10-19T11:05:42.711Z,17.34
2022-10-19T11:08:18.556Z,17.36
2022-10-19T11:10:48.621Z,17.78
2022-10-19T11:13:19.096Z,18.52
2022-10-19T11:15:52.361Z,19.25
2022-10-19T11:18:21.441Z,18.70
2022-10-19T11:20:56.245Z,18.68
2022-10-19T11:23:30.507Z,18.49
2022-10-19T11:26:05.033Z,18.47
2022-10-19T11:28:40.317Z,17.74
2022-10-19T11:31:14.484Z,17.93
2022-10-19T11:33:50.060Z,17.76
2022-10-19T11:36:26.206Z,17.44
2022-10-19T11:39:02.091Z,17.59
2022-10-19T11:41:34.006Z,17.38
2022-10-19T11:44:14.407Z,17.60
2022-10-19T11:46:48.236Z,17.41
2022-10-19T11:49:25.767Z,17.53
2022-10-19T11:52:01.675Z,18.52
2022-10-19T11:54:37.986Z,19.12
2022-10-19T11:57:11.857Z,18.55
2022-10-19T11:59:47.565Z,18.34
2022-10-19T12:02:25.305Z,18.15
2022-10-19T12:04:55.530Z,18.14
2022-10-19T12:07:33.653Z,18.10
2022-10-19T12:10:04.533Z,18.38
2022-10-19T12:12:34.478Z,18.27
2022-10-19T12:15:06.699Z,18.51
2022-10-19T12:17:37.400Z,18.24
2022-10-19T12:20:08.287Z,18.12
2022-10-19T12:22:38.441Z,18.22
2022-10-19T12:25:06.826Z,18.19
2022-10-19T12:27:36.124Z,18.13
2022-10-19T12:30:06.845Z,17.68
2022-10-19T12:32:38.396Z,17.97
2022-10-19T12:35:09.488Z,17.71
2022-10-19T12:37:43.718Z,17.44
2022-10-19T12:40:20.006Z,17.36
2022-10-19T12:42:52.890Z,17.39
2022-10-19T12:45:25.476Z,17.36
2022-10-19T12:48:12.267Z,17.49
2022-10-19T12:50:58.553Z,17.51
2022-10-19T12:53:30.543Z,17.82
2022-10-19T12:56:02.385Z,17.98
2022-10-19T12:58:34.577Z,18.15
2022-10-19T13:01:03.570Z,18.25
2022-10-19T13:03:32.200Z,18.36
2022-10-19T13:06:00.986Z,18.37
2022-10-19T13:08:31.465Z,18.41
2022-10-19T13:11:04.131Z,18.31
2022-10-19T13:13:51.462Z,17.98
2022-10-19T13:16:49.217Z,17.44
2022-10-19T13:19:20.606Z,17.13
2022-10-19T13:21:55.516Z,17.18
2022-10-19T13:27:37.340Z,17.10
2022-10-19T13:30:05.846Z,16.92
2022-10-19T13:32:46.913Z,17.36
2022-10-19T13:35:25.488Z,17.09
2022-10-19T13:38:12.858Z,17.53
2022-10-19T13:40:42.528Z,17.26
2022-10-19T13:43:19.696Z,17.13
2022-10-19T13:45:54.615Z,17.38
2022-10-19T13:48:25.487Z,17.60
2022-10-19T13:50:56.605Z,17.55
2022-10-19T13:53:40.777Z,17.34
2022-10-19T13:56:25.268Z,17.37
2022-10-19T14:02:17.629Z,17.50
2022-10-19T14:04:51.975Z,17.37
2022-10-19T14:07:23.133Z,17.63
2022-10-19T14:10:14.393Z,17.28
2022-10-19T14:12:43.268Z,17.10
2022-10-19T14:15:23.586Z,17.10
2022-10-19T14:17:51.324Z,17.33
2022-10-19T14:20:30.084Z,17.33
2022-10-19T14:22:57.760Z,17.06
2022-10-19T14:25:26.942Z,17.16
2022-10-19T14:27:57.997Z,16.88
2022-10-19T14:30:27.978Z,16.86
2022-10-19T14:32:59.413Z,17.01
2022-10-19T14:35:31.831Z,17.03
2022-10-19T14:38:00.183Z,16.88
2022-10-19T14:40:29.380Z,16.61
2022-10-19T14:42:57.945Z,16.58
2022-10-19T14:45:28.349Z,16.42
2022-10-19T14:47:57.551Z,16.46
2022-10-19T14:50:27.794Z,16.50
2022-10-19T14:52:58.544Z,16.63
2022-10-19T14:55:30.369Z,16.80
2022-10-19T14:57:58.294Z,16.66
2022-10-19T15:00:27.525Z,16.87
2022-10-19T15:02:58.738Z,16.83
2022-10-19T15:05:27.864Z,16.51
2022-10-19T15:07:56.089Z,16.48
2022-10-19T15:10:25.592Z,16.52
2022-10-19T15:12:57.953Z,16.57
2022-10-19T15:15:28.970Z,16.33
2022-10-19T15:17:57.739Z,16.39
2022-10-19T15:20:27.422Z,16.52
2022-10-19T15:22:55.411Z,16.50
2022-10-19T15:25:26.159Z,16.68
2022-10-19T15:27:54.270Z,16.52
2022-10-19T15:30:24.863Z,16.57
2022-10-19T15:32:55.999Z,16.41
2022-10-19T15:35:27.240Z,16.45
2022-10-19T15:38:00.959Z,16.70
2022-10-19T15:40:32.637Z,16.85
2022-10-19T15:43:00.551Z,16.59
2022-10-19T15:45:28.920Z,16.66
2022-10-19T15:48:11.435Z,16.53
2022-10-19T15:50:43.534Z,16.45
2022-10-19T15:53:11.182Z,16.20
2022-10-19T15:55:38.764Z,16.31
2022-10-19T15:58:06.464Z,16.32
2022-10-19T16:00:34.128Z,16.09
2022-10-19T16:03:01.817Z,16.21
2022-10-19T16:05:29.657Z,16.22
2022-10-19T16:07:58.688Z,16.10
2022-10-19T16:10:27.493Z,15.95
2022-10-19T16:12:55.407Z,15.93
2022-10-19T16:15:23.987Z,15.99
2022-10-19T16:17:54.589Z,15.91
2022-10-19T16:20:22.966Z,15.80
2022-10-19T16:22:50.579Z,15.77
2022-10-19T16:25:19.583Z,15.69
2022-10-19T16:27:47.195Z,15.72
2022-10-19T16:30:14.902Z,15.61
2022-10-19T16:35:15.114Z,15.51
2022-10-19T16:37:42.732Z,15.48
2022-10-19T16:40:10.804Z,15.44
2022-10-19T16:42:39.760Z,15.36
2022-10-19T16:45:07.836Z,15.30
2022-10-19T16:47:35.500Z,15.14
2022-10-19T16:50:03.379Z,15.15
2022-10-19T16:52:31.875Z,15.13
2022-10-19T16:54:59.621Z,15.10
2022-10-19T16:57:27.257Z,15.02
2022-10-19T16:59:56.245Z,14.96
2022-10-19T17:02:23.926Z,14.92
2022-10-19T17:04:51.584Z,14.86
2022-10-19T17:07:19.265Z,14.84
2022-10-19T17:09:49.692Z,14.79
2022-10-19T17:12:19.989Z,14.82
2022-10-19T17:14:47.641Z,14.70
2022-10-19T17:17:17.149Z,14.74
2022-10-19T17:19:44.770Z,14.71
2022-10-19T17:22:12.471Z,14.70
2022-10-19T17:24:40.115Z,14.61
2022-10-19T17:27:07.728Z,14.61
2022-10-19T17:29:35.392Z,14.47
2022-10-19T17:32:03.092Z,14.42
2022-10-19T17:34:32.127Z,14.41
2022-10-19T17:36:59.735Z,14.39
2022-10-19T17:39:29.900Z,14.45
2022-10-19T17:42:01.482Z,14.31
2022-10-19T17:44:30.504Z,14.32
2022-10-19T17:46:58.436Z,14.23
2022-10-19T17:49:26.051Z,14.19
2022-10-19T17:51:55.013Z,14.28
2022-10-19T17:54:22.621Z,14.27
2022-10-19T17:56:50.292Z,14.31
2022-10-19T17:59:22.598Z,14.17
2022-10-19T18:01:57.392Z,14.17
2022-10-19T18:04:25.013Z,14.12
2022-10-19T18:06:52.645Z,14.10
2022-10-19T18:09:21.612Z,14.17
2022-10-19T18:11:49.244Z,14.19
2022-10-19T18:14:17.199Z,14.08
2022-10-19T18:16:45.819Z,14.06
2022-10-19T18:19:14.028Z,13.94
2022-10-19T18:21:42.656Z,13.85
2022-10-19T18:24:15.146Z,13.93
2022-10-19T18:26:44.711Z,13.87
2022-10-19T18:29:13.416Z,13.77
2022-10-19T18:31:41.051Z,13.80
2022-10-19T18:34:09.909Z,13.82
2022-10-19T18:36:37.525Z,13.76
2022-10-19T18:39:06.013Z,13.76
2022-10-19T18:41:33.627Z,13.69
2022-10-19T18:44:04.418Z,13.69
2022-10-19T18:46:32.850Z,13.70
2022-10-19T18:49:00.957Z,13.65
2022-10-19T18:52:36.076Z,13.49
2022-10-19T18:55:06.778Z,13.38
2022-10-19T18:57:35.460Z,13.43
2022-10-19T19:00:04.900Z,13.38
2022-10-19T19:02:46.460Z,13.40
2022-10-19T19:05:18.785Z,13.42
2022-10-19T19:07:49.516Z,13.34
2022-10-19T19:10:18.758Z,13.28
2022-10-19T19:12:50.402Z,13.40
2022-10-19T19:15:19.839Z,13.44
2022-10-19T19:17:47.849Z,13.48
2022-10-19T19:20:15.800Z,13.53
2022-10-19T19:22:43.890Z,13.42
2022-10-19T19:25:13.241Z,13.48
2022-10-19T19:27:41.209Z,13.42
2022-10-19T19:30:10.910Z,13.54
2022-10-19T19:32:38.910Z,13.54
2022-10-19T19:35:07.489Z,13.75
2022-10-19T19:37:36.454Z,13.74
2022-10-19T19:40:04.907Z,13.70
2022-10-19T19:42:35.317Z,13.65
2022-10-19T19:45:03.359Z,13.74
2022-10-19T19:47:31.190Z,13.44
2022-10-19T19:49:59.033Z,13.46
2022-10-19T19:52:26.921Z,13.45
2022-10-19T19:54:54.764Z,13.39
2022-10-19T19:57:22.903Z,13.16
2022-10-19T19:59:52.116Z,12.95
2022-10-19T20:02:21.088Z,13.18
2022-10-19T20:04:49.965Z,13.12
2022-10-19T20:07:17.828Z,13.21
2022-10-19T20:09:46.076Z,13.14
2022-10-19T20:12:14.248Z,13.11
2022-10-19T20:14:42.088Z,13.11
2022-10-19T20:17:11.302Z,13.04
2022-10-19T20:19:39.340Z,13.12
2022-10-19T20:22:07.253Z,12.91
2022-10-19T20:24:37.637Z,13.10
2022-10-19T20:27:05.869Z,13.09
2022-10-19T20:29:33.880Z,13.02
2022-10-19T20:32:01.834Z,12.92
2022-10-19T20:34:31.262Z,12.93
2022-10-19T20:36:59.234Z,12.75
2022-10-19T20:39:27.226Z,12.81
2022-10-19T20:41:55.349Z,13.07
2022-10-19T20:44:23.290Z,13.03
2022-10-19T20:46:51.291Z,12.88
2022-10-19T20:49:19.344Z,12.74
2022-10-19T20:51:48.640Z,12.90
2022-10-19T20:54:16.492Z,12.91
2022-10-19T20:56:44.327Z,12.84
2022-10-19T20:59:14.325Z,12.84
2022-10-19T21:01:44.020Z,12.74
2022-10-19T21:04:14.556Z,12.78
2022-10-19T21:06:44.041Z,12.82
2022-10-19T21:09:15.366Z,12.72
2022-10-19T21:11:44.271Z,12.74
2022-10-19T21:14:14.162Z,12.76
2022-10-19T21:16:43.047Z,12.76
2022-10-19T21:19:13.917Z,12.82
2022-10-19T21:21:44.402Z,12.77
2022-10-19T21:24:16.048Z,12.68
2022-10-19T21:26:44.130Z,12.55
2022-10-19T21:29:13.491Z,12.51
2022-10-19T21:31:45.218Z,12.26
2022-10-19T21:34:17.155Z,12.32
2022-10-19T21:36:45.052Z,12.26
2022-10-19T21:39:14.493Z,12.30
2022-10-19T21:41:42.376Z,12.35
2022-10-19T21:44:10.492Z,12.21
2022-10-19T21:46:38.356Z,12.17
2022-10-19T21:49:06.164Z,12.36
2022-10-19T21:51:37.464Z,12.25
2022-10-19T21:54:06.677Z,12.21
2022-10-19T21:56:35.978Z,12.04
2022-10-19T21:59:04.041Z,12.10
2022-10-19T22:01:37.241Z,12.10
2022-10-19T22:04:10.526Z,12.09
2022-10-19T22:06:38.452Z,11.97
2022-10-19T22:09:08.742Z,11.84
2022-10-19T22:11:38.007Z,11.97
2022-10-19T22:14:06.437Z,11.84
2022-10-19T22:16:36.844Z,11.96
2022-10-19T22:19:06.000Z,11.87
2022-10-19T22:21:35.200Z,11.64
2022-10-19T22:24:05.545Z,11.47
2022-10-19T22:26:35.277Z,11.78
2022-10-19T22:29:06.383Z,11.97
2022-10-19T22:31:35.714Z,11.83
2022-10-19T22:34:05.349Z,11.70
2022-10-19T22:36:33.339Z,11.79
2022-10-19T22:39:01.160Z,11.73
2022-10-19T22:41:29.006Z,11.68
2022-10-19T22:43:56.858Z,11.70
2022-10-19T22:46:26.136Z,11.70
2022-10-19T22:48:54.150Z,11.77
2022-10-19T22:51:22.214Z,11.78
2022-10-19T22:53:50.149Z,11.83
2022-10-19T22:56:18.030Z,11.66
2022-10-19T22:58:45.994Z,11.67
2022-10-19T23:01:16.108Z,11.53
2022-10-19T23:03:45.619Z,11.52
2022-10-19T23:06:15.290Z,11.42
2022-10-19T23:08:43.754Z,11.58
2022-10-19T23:11:12.376Z,11.39
2022-10-19T23:13:40.780Z,11.36
2022-10-19T23:16:09.705Z,11.41
2022-10-19T23:18:40.117Z,11.46
2022-10-19T23:21:12.166Z,11.52
2022-10-19T23:23:40.820Z,11.49
2022-10-19T23:26:11.061Z,11.33
2022-10-19T23:28:40.599Z,11.03
2022-10-19T23:31:10.595Z,11.25
2022-10-19T23:33:38.890Z,11.27
2022-10-19T23:36:09.851Z,10.90
2022-10-19T23:38:37.754Z,11.17
2022-10-19T23:41:05.934Z,11.18
2022-10-19T23:43:34.181Z,11.30
2022-10-19T23:46:02.054Z,11.15
2022-10-19T23:48:29.980Z,11.32
2022-10-19T23:50:59.358Z,11.29
2022-10-19T23:53:30.241Z,11.15
2022-10-19T23:56:01.358Z,11.03
2022-10-19T23:58:30.205Z,11.16
